createdAt,value
2023-01-07T00:01:09.671Z,5.07
2023-01-07T00:03:37.611Z,4.67
2023-01-07T00:06:09.579Z,5.63
2023-01-07T00:08:38.234Z,5.53
2023-01-07T00:11:10.135Z,5.80
2023-01-07T00:13:37.431Z,5.73
2023-01-07T00:16:09.311Z,5.77
2023-01-07T00:18:37.071Z,6.00
2023-01-07T00:21:06.661Z,5.60
2023-01-07T00:23:34.612Z,5.03
2023-01-07T00:26:04.056Z,5.47
2023-01-07T00:28:31.175Z,5.83
2023-01-07T00:31:02.567Z,5.10
2023-01-07T00:33:29.378Z,5.33
2023-01-07T00:36:00.942Z,5.57
2023-01-07T00:38:27.761Z,5.57
2023-01-07T00:40:54.673Z,5.90
2023-01-07T00:43:21.608Z,5.87
2023-01-07T00:45:48.572Z,5.53
2023-01-07T00:48:15.824Z,5.67
2023-01-07T00:50:42.532Z,5.67
2023-01-07T00:53:11.040Z,5.63
2023-01-07T00:55:38.280Z,5.17
2023-01-07T00:58:05.410Z,5.37
2023-01-07T01:00:32.586Z,6.27
2023-01-07T01:02:59.537Z,5.83
2023-01-07T01:05:26.572Z,5.40
2023-01-07T01:07:53.217Z,5.53
2023-01-07T01:10:20.710Z,6.90
2023-01-07T01:12:49.791Z,5.27
2023-01-07T01:15:17.428Z,6.50
2023-01-07T01:17:44.331Z,5.93
2023-01-07T01:20:14.077Z,5.23
2023-01-07T01:22:41.309Z,4.73
2023-01-07T01:25:09.128Z,5.53
2023-01-07T01:27:36.304Z,5.90
2023-01-07T01:30:03.620Z,5.57
2023-01-07T01:32:30.377Z,5.33
2023-01-07T01:34:57.178Z,6.60
2023-01-07T01:37:24.316Z,6.17
2023-01-07T01:39:51.030Z,5.97
2023-01-07T01:42:22.070Z,6.00
2023-01-07T01:44:48.987Z,5.80
2023-01-07T01:47:34.359Z,5.97
2023-01-07T01:50:16.924Z,6.03
2023-01-07T01:52:51.605Z,5.70
2023-01-07T01:55:21.997Z,6.40
2023-01-07T01:57:53.320Z,6.63
2023-01-07T02:00:20.188Z,6.27
2023-01-07T02:02:50.878Z,6.17
2023-01-07T02:05:18.094Z,5.90
2023-01-07T02:07:44.785Z,5.90
2023-01-07T02:10:20.220Z,5.90
2023-01-07T02:13:36.183Z,5.73
2023-01-07T02:16:15.937Z,4.80
2023-01-07T02:19:07.187Z,4.87
2023-01-07T02:21:39.908Z,5.20
2023-01-07T02:24:40.761Z,4.80
2023-01-07T02:27:33.237Z,5.53
2023-01-07T02:30:25.260Z,4.37
2023-01-07T02:33:03.569Z,6.20
2023-01-07T02:36:14.069Z,5.20
2023-01-07T02:38:53.160Z,5.30
2023-01-07T02:41:29.060Z,5.00
2023-01-07T02:44:22.743Z,5.80
2023-01-07T02:47:11.593Z,5.10
2023-01-07T02:49:38.331Z,5.40
2023-01-07T02:52:18.025Z,4.73
2023-01-07T02:54:49.103Z,4.93
2023-01-07T02:57:31.796Z,5.10
2023-01-07T03:00:13.859Z,4.80
2023-01-07T03:03:08.434Z,4.57
2023-01-07T03:05:53.287Z,4.30
2023-01-07T03:08:34.956Z,4.63
2023-01-07T03:11:08.302Z,4.27
2023-01-07T03:14:14.672Z,4.50
2023-01-07T03:16:47.382Z,4.23
2023-01-07T03:19:18.432Z,4.80
2023-01-07T03:21:47.635Z,4.00
2023-01-07T03:24:16.291Z,4.27
2023-01-07T03:26:50.283Z,4.10
2023-01-07T03:29:18.483Z,4.50
2023-01-07T03:32:08.161Z,4.70
2023-01-07T03:34:37.102Z,4.67
2023-01-07T03:37:11.023Z,4.93
2023-01-07T03:39:39.565Z,5.83
2023-01-07T03:42:29.151Z,4.57
2023-01-07T03:44:56.193Z,5.03
2023-01-07T03:47:23.304Z,5.40
2023-01-07T03:49:50.033Z,5.50
2023-01-07T03:52:16.802Z,4.50
2023-01-07T03:54:43.485Z,4.10
2023-01-07T03:57:10.222Z,4.03
2023-01-07T03:59:36.961Z,4.07
2023-01-07T04:02:03.866Z,4.17
2023-01-07T04:04:32.444Z,4.50
2023-01-07T04:06:59.229Z,3.60
2023-01-07T04:09:26.048Z,4.17
2023-01-07T04:11:52.794Z,4.90
2023-01-07T04:14:19.520Z,4.23
2023-01-07T04:16:46.354Z,3.83
2023-01-07T04:19:13.220Z,3.83
2023-01-07T04:21:39.965Z,3.30
2023-01-07T04:24:07.162Z,4.00
2023-01-07T04:26:33.925Z,4.33
2023-01-07T04:29:00.753Z,3.70
2023-01-07T04:31:27.560Z,3.73
2023-01-07T04:33:54.307Z,4.20
2023-01-07T04:36:21.310Z,4.47
2023-01-07T04:38:48.050Z,3.63
2023-01-07T04:41:14.804Z,4.17
2023-01-07T04:43:41.653Z,4.00
2023-01-07T04:46:08.438Z,3.83
2023-01-07T04:48:35.245Z,3.80
2023-01-07T04:51:01.977Z,3.40
2023-01-07T04:53:28.699Z,3.80
2023-01-07T04:55:55.592Z,3.93
2023-01-07T04:58:22.392Z,4.10
2023-01-07T05:00:49.540Z,4.70
2023-01-07T05:03:16.337Z,3.87
2023-01-07T05:05:43.066Z,4.90
2023-01-07T05:08:09.784Z,4.47
2023-01-07T05:10:36.612Z,3.63
2023-01-07T05:13:07.006Z,4.27
2023-01-07T05:15:33.957Z,3.80
2023-01-07T05:18:00.737Z,4.00
2023-01-07T05:20:27.452Z,4.23
2023-01-07T05:22:54.147Z,4.07
2023-01-07T05:25:20.921Z,3.47
2023-01-07T05:27:47.653Z,3.83
2023-01-07T05:30:14.471Z,3.97
2023-01-07T05:32:41.206Z,4.10
2023-01-07T05:35:08.325Z,4.07
2023-01-07T05:37:35.086Z,4.40
2023-01-07T05:40:01.807Z,4.07
2023-01-07T05:42:28.554Z,3.93
2023-01-07T05:44:55.256Z,4.47
2023-01-07T05:47:36.338Z,4.20
2023-01-07T05:50:03.180Z,4.17
2023-01-07T05:52:29.920Z,4.73
2023-01-07T05:54:56.627Z,4.00
2023-01-07T05:57:23.332Z,4.27
2023-01-07T05:59:50.145Z,3.53
2023-01-07T06:02:17.885Z,4.20
2023-01-07T06:04:44.673Z,3.33
2023-01-07T06:07:11.525Z,4.00
2023-01-07T06:09:38.342Z,4.33
2023-01-07T06:12:05.276Z,3.63
2023-01-07T06:14:32.012Z,4.60
2023-01-07T06:16:59.568Z,4.17
2023-01-07T06:19:27.228Z,3.63
2023-01-07T06:21:53.948Z,3.67
2023-01-07T06:24:20.738Z,3.67
2023-01-07T06:26:47.481Z,3.63
2023-01-07T06:29:14.359Z,4.37
2023-01-07T06:31:41.088Z,4.27
2023-01-07T06:34:07.993Z,3.80
2023-01-07T06:36:34.754Z,4.70
2023-01-07T06:39:01.479Z,4.40
2023-01-07T06:41:28.232Z,4.83
2023-01-07T06:43:54.967Z,4.53
2023-01-07T06:46:21.817Z,3.97
2023-01-07T06:48:48.641Z,3.73
2023-01-07T06:51:15.355Z,4.50
2023-01-07T06:53:42.216Z,4.53
2023-01-07T06:56:09.025Z,3.70
2023-01-07T06:58:35.801Z,4.40
2023-01-07T07:01:07.577Z,4.97
2023-01-07T07:03:34.692Z,4.60
2023-01-07T07:06:01.411Z,4.67
2023-01-07T07:08:28.249Z,5.17
2023-01-07T07:10:55.030Z,5.03
2023-01-07T07:13:21.782Z,4.97
2023-01-07T07:15:49.818Z,4.23
2023-01-07T07:18:19.577Z,4.70
2023-01-07T07:20:47.218Z,4.20
2023-01-07T07:23:14.272Z,5.40
2023-01-07T07:25:41.117Z,5.03
2023-01-07T07:28:07.880Z,6.43
2023-01-07T07:30:45.672Z,5.20
2023-01-07T07:33:15.218Z,5.27
2023-01-07T07:35:42.337Z,5.67
2023-01-07T07:38:09.495Z,5.73
2023-01-07T07:40:36.404Z,5.00
2023-01-07T07:43:11.296Z,12.40
2023-01-07T07:45:43.539Z,7.37
2023-01-07T07:48:12.629Z,5.35
2023-01-07T07:50:39.440Z,4.80
2023-01-07T07:53:09.979Z,4.70
2023-01-07T07:55:38.208Z,4.93
2023-01-07T07:58:05.488Z,4.53
2023-01-07T08:00:32.750Z,4.77
2023-01-07T08:03:00.056Z,5.87
2023-01-07T08:05:27.960Z,6.00
2023-01-07T08:07:54.985Z,6.43
2023-01-07T08:10:22.577Z,5.70
2023-01-07T08:12:50.605Z,5.73
2023-01-07T08:15:17.770Z,5.07
2023-01-07T08:17:44.679Z,5.13
2023-01-07T08:20:12.373Z,5.97
2023-01-07T08:22:39.114Z,5.43
2023-01-07T08:25:06.324Z,5.13
2023-01-07T08:27:33.070Z,6.13
2023-01-07T08:29:59.852Z,5.83
2023-01-07T08:32:26.642Z,5.33
2023-01-07T08:34:53.496Z,4.23
2023-01-07T08:37:20.207Z,3.80
2023-01-07T08:39:46.936Z,4.10
2023-01-07T08:42:13.645Z,4.43
2023-01-07T08:44:40.381Z,4.13
2023-01-07T08:47:07.104Z,4.17
2023-01-07T08:49:33.958Z,5.07
2023-01-07T08:52:00.674Z,3.90
2023-01-07T08:54:27.588Z,4.60
2023-01-07T08:56:54.311Z,5.27
2023-01-07T08:59:21.098Z,4.30
2023-01-07T09:01:47.874Z,3.77
2023-01-07T09:04:14.682Z,4.07
2023-01-07T09:06:41.490Z,4.30
2023-01-07T09:09:08.275Z,4.33
2023-01-07T09:11:35.080Z,4.07
2023-01-07T09:14:02.502Z,4.50
2023-01-07T09:16:29.361Z,3.50
2023-01-07T09:18:56.157Z,3.50
2023-01-07T09:21:22.921Z,3.40
2023-01-07T09:23:49.742Z,3.73
2023-01-07T09:26:16.485Z,3.80
2023-01-07T09:28:43.215Z,3.90
2023-01-07T09:31:09.977Z,4.00
2023-01-07T09:33:36.740Z,4.30
2023-01-07T09:36:03.568Z,3.80
2023-01-07T09:38:30.388Z,3.40
2023-01-07T09:40:57.320Z,3.30
2023-01-07T09:44:00.971Z,3.40
2023-01-07T09:46:30.355Z,3.53
2023-01-07T09:49:03.540Z,3.53
2023-01-07T09:51:43.805Z,3.13
2023-01-07T09:54:33.843Z,3.60
2023-01-07T09:57:00.900Z,2.70
2023-01-07T09:59:28.219Z,2.23
2023-01-07T10:02:12.647Z,3.20
2023-01-07T10:04:58.856Z,3.10
2023-01-07T10:07:42.913Z,2.90
2023-01-07T10:10:17.127Z,2.77
2023-01-07T10:12:49.462Z,3.77
2023-01-07T10:15:47.201Z,3.63
2023-01-07T10:18:21.126Z,2.63
2023-01-07T10:21:13.020Z,4.90
2023-01-07T10:23:43.521Z,2.63
2023-01-07T10:26:19.496Z,3.23
2023-01-07T10:28:55.678Z,3.40
2023-01-07T10:31:25.764Z,9.40
2023-01-07T10:33:53.081Z,3.43
2023-01-07T10:36:38.914Z,6.07
2023-01-07T10:39:17.735Z,5.90
2023-01-07T10:42:00.162Z,4.80
2023-01-07T10:44:26.824Z,3.30
2023-01-07T10:47:09.548Z,2.80
2023-01-07T10:50:07.509Z,2.57
2023-01-07T10:52:37.203Z,2.60
2023-01-07T10:55:09.774Z,3.13
2023-01-07T10:57:38.728Z,3.33
2023-01-07T11:00:10.805Z,2.60
2023-01-07T11:02:38.792Z,3.47
2023-01-07T11:05:06.076Z,3.40
2023-01-07T11:07:49.868Z,2.17
2023-01-07T11:10:23.991Z,2.43
2023-01-07T11:12:55.499Z,2.97
2023-01-07T11:15:25.235Z,2.60
2023-01-07T11:17:52.161Z,2.37
2023-01-07T11:20:57.523Z,3.13
2023-01-07T11:23:36.161Z,2.80
2023-01-07T11:26:13.792Z,2.80
2023-01-07T11:29:01.971Z,3.20
2023-01-07T11:31:51.402Z,2.80
2023-01-07T11:34:25.453Z,2.93
2023-01-07T11:36:52.657Z,2.50
2023-01-07T11:39:28.067Z,2.60
2023-01-07T11:42:22.039Z,2.63
2023-01-07T11:44:48.754Z,2.60
2023-01-07T11:47:18.224Z,2.83
2023-01-07T11:49:45.882Z,3.07
2023-01-07T11:52:21.707Z,3.40
2023-01-07T11:54:52.130Z,3.17
2023-01-07T11:57:27.130Z,5.53
2023-01-07T12:00:28.701Z,4.30
2023-01-07T12:03:11.112Z,3.40
2023-01-07T12:05:39.489Z,3.03
2023-01-07T12:08:07.636Z,3.13
2023-01-07T12:10:39.105Z,2.90
2023-01-07T12:13:18.235Z,2.53
2023-01-07T12:15:53.915Z,2.73
2023-01-07T12:18:51.664Z,3.33
2023-01-07T12:21:37.138Z,2.20
2023-01-07T12:24:16.643Z,2.87
2023-01-07T12:26:58.787Z,2.90
2023-01-07T12:29:51.364Z,3.30
2023-01-07T12:32:50.619Z,3.23
2023-01-07T12:35:24.885Z,2.60
2023-01-07T12:37:58.547Z,2.70
2023-01-07T12:40:31.093Z,3.13
2023-01-07T12:43:10.904Z,3.50
2023-01-07T12:45:47.475Z,3.60
2023-01-07T12:49:05.119Z,3.80
2023-01-07T12:51:39.754Z,2.63
2023-01-07T12:54:32.373Z,2.57
2023-01-07T12:57:07.025Z,3.20
2023-01-07T12:59:48.238Z,4.00
2023-01-07T13:02:33.305Z,2.70
2023-01-07T13:05:10.270Z,2.97
2023-01-07T13:07:59.244Z,3.30
2023-01-07T13:10:33.620Z,3.30
2023-01-07T13:13:06.483Z,3.40
2023-01-07T13:15:40.305Z,2.90
2023-01-07T13:18:16.948Z,3.20
2023-01-07T13:20:50.250Z,3.30
2023-01-07T13:23:25.046Z,3.60
2023-01-07T13:26:12.196Z,3.20
2023-01-07T13:28:57.132Z,3.23
2023-01-07T13:31:50.152Z,2.87
2023-01-07T13:34:33.926Z,3.33
2023-01-07T13:37:54.461Z,3.07
2023-01-07T13:40:49.955Z,3.33
2023-01-07T13:43:32.256Z,3.23
2023-01-07T13:46:03.904Z,2.70
2023-01-07T13:48:34.679Z,2.83
2023-01-07T13:51:03.760Z,3.10
2023-01-07T13:53:46.730Z,3.10
2023-01-07T13:56:19.703Z,3.03
2023-01-07T13:58:49.750Z,2.70
2023-01-07T14:01:17.974Z,2.80
2023-01-07T14:03:58.655Z,2.70
2023-01-07T14:06:45.654Z,2.97
2023-01-07T14:09:25.884Z,2.97
2023-01-07T14:11:58.212Z,2.50
2023-01-07T14:14:46.689Z,2.70
2023-01-07T14:17:28.666Z,2.50
2023-01-07T14:20:21.394Z,2.90
2023-01-07T14:23:12.028Z,3.37
2023-01-07T14:25:41.451Z,3.23
2023-01-07T14:28:35.944Z,3.40
2023-01-07T14:31:03.418Z,2.97
2023-01-07T14:33:46.915Z,3.07
2023-01-07T14:36:15.687Z,3.83
2023-01-07T14:38:42.377Z,4.10
2023-01-07T14:41:10.462Z,2.70
2023-01-07T14:43:46.061Z,4.10
2023-01-07T14:46:24.922Z,3.17
2023-01-07T14:49:03.807Z,2.90
2023-01-07T14:51:51.591Z,4.20
2023-01-07T14:54:30.364Z,4.57
2023-01-07T14:57:35.998Z,4.60
2023-01-07T15:00:21.163Z,3.33
2023-01-07T15:03:00.510Z,3.67
2023-01-07T15:05:36.557Z,3.47
2023-01-07T15:08:27.393Z,3.63
2023-01-07T15:11:17.462Z,4.70
2023-01-07T15:14:12.446Z,4.60
2023-01-07T15:16:40.010Z,4.83
2023-01-07T15:19:09.305Z,5.80
2023-01-07T15:21:56.739Z,4.13
2023-01-07T15:24:47.572Z,4.80
2023-01-07T15:27:17.049Z,4.53
2023-01-07T15:29:53.121Z,4.77
2023-01-07T15:32:28.860Z,4.00
2023-01-07T15:34:55.752Z,4.17
2023-01-07T15:37:22.459Z,3.57
2023-01-07T15:39:55.453Z,4.17
2023-01-07T15:42:24.728Z,6.50
2023-01-07T15:44:53.924Z,7.63
2023-01-07T15:47:43.935Z,6.80
2023-01-07T15:50:25.900Z,4.67
2023-01-07T15:53:01.369Z,4.80
2023-01-07T15:55:36.211Z,7.00
2023-01-07T15:58:17.634Z,5.70
2023-01-07T16:00:48.425Z,4.33
2023-01-07T16:03:17.567Z,6.77
2023-01-07T16:05:47.229Z,8.00
2023-01-07T16:08:36.824Z,11.53
2023-01-07T16:11:06.853Z,8.43
2023-01-07T16:13:35.109Z,6.03
2023-01-07T16:16:06.537Z,6.37
2023-01-07T16:18:33.702Z,6.50
2023-01-07T16:21:08.235Z,7.13
2023-01-07T16:23:38.962Z,6.93
2023-01-07T16:26:16.434Z,5.70
2023-01-07T16:28:57.252Z,5.33
2023-01-07T16:31:26.523Z,5.90
2023-01-07T16:33:56.723Z,7.70
2023-01-07T16:36:32.174Z,6.27
2023-01-07T16:39:06.343Z,6.57
2023-01-07T16:41:34.197Z,6.33
2023-01-07T16:44:01.149Z,6.50
2023-01-07T16:46:33.125Z,6.13
2023-01-07T16:49:16.144Z,5.13
2023-01-07T16:51:54.078Z,6.40
2023-01-07T16:54:26.770Z,4.65
2023-01-07T16:57:02.303Z,5.22
2023-01-07T16:59:34.581Z,6.37
2023-01-07T17:02:30.272Z,7.20
2023-01-07T17:05:18.981Z,6.10
2023-01-07T17:07:54.614Z,7.10
2023-01-07T17:10:21.280Z,6.60
2023-01-07T17:13:23.355Z,8.00
2023-01-07T17:15:50.432Z,7.70
2023-01-07T17:18:17.108Z,8.10
2023-01-07T17:21:01.805Z,9.07
2023-01-07T17:23:31.686Z,9.60
2023-01-07T17:26:03.759Z,10.60
2023-01-07T17:28:36.795Z,9.37
2023-01-07T17:31:04.159Z,10.50
2023-01-07T17:33:30.938Z,9.93
2023-01-07T17:35:57.680Z,11.18
2023-01-07T17:38:24.490Z,11.20
2023-01-07T17:40:52.198Z,11.35
2023-01-07T17:43:33.587Z,10.73
2023-01-07T17:46:06.315Z,11.05
2023-01-07T17:48:33.806Z,10.80
2023-01-07T17:51:01.436Z,10.37
2023-01-07T17:53:43.564Z,10.00
2023-01-07T17:56:10.635Z,10.30
2023-01-07T17:58:38.213Z,9.23
2023-01-07T18:01:09.905Z,9.13
2023-01-07T18:03:37.079Z,9.75
2023-01-07T18:06:04.230Z,9.35
2023-01-07T18:08:30.960Z,10.07
2023-01-07T18:11:16.451Z,10.80
2023-01-07T18:13:43.444Z,9.02
2023-01-07T18:16:14.355Z,10.02
2023-01-07T18:18:41.141Z,10.65
2023-01-07T18:21:11.395Z,9.90
2023-01-07T18:23:38.648Z,9.35
2023-01-07T18:26:06.169Z,9.95
2023-01-07T18:28:32.938Z,10.05
2023-01-07T18:30:59.698Z,9.55
2023-01-07T18:33:26.660Z,11.05
2023-01-07T18:35:53.587Z,11.75
2023-01-07T18:38:20.360Z,10.95
2023-01-07T18:40:47.191Z,10.15
2023-01-07T18:43:15.875Z,12.30
2023-01-07T18:45:43.912Z,11.57
2023-01-07T18:48:12.983Z,11.07
2023-01-07T18:50:48.196Z,12.25
2023-01-07T18:53:16.023Z,11.52
2023-01-07T18:55:43.948Z,11.53
2023-01-07T18:58:13.901Z,11.53
2023-01-07T19:00:41.255Z,11.85
2023-01-07T19:03:08.068Z,13.60
2023-01-07T19:05:34.817Z,12.27
2023-01-07T19:08:01.538Z,14.27
2023-01-07T19:10:28.405Z,14.60
2023-01-07T19:12:55.207Z,13.70
2023-01-07T19:15:22.000Z,13.95
2023-01-07T19:17:48.702Z,14.60
2023-01-07T19:20:16.442Z,14.63
2023-01-07T19:22:43.198Z,13.95
2023-01-07T19:25:10.127Z,15.32
2023-01-07T19:27:36.943Z,15.30
2023-01-07T19:30:04.312Z,14.70
2023-01-07T19:32:31.125Z,13.55
2023-01-07T19:34:57.878Z,15.25
2023-01-07T19:37:24.637Z,15.02
2023-01-07T19:39:51.347Z,14.50
2023-01-07T19:42:18.155Z,14.38
2023-01-07T19:44:44.863Z,12.63
2023-01-07T19:47:11.743Z,14.70
2023-01-07T19:49:38.931Z,13.77
2023-01-07T19:52:05.770Z,14.68
2023-01-07T19:54:32.501Z,15.93
2023-01-07T19:56:59.199Z,15.05
2023-01-07T19:59:25.969Z,16.02
2023-01-07T20:01:53.697Z,15.25
2023-01-07T20:04:20.680Z,16.40
2023-01-07T20:06:47.828Z,17.25
2023-01-07T20:09:14.704Z,15.15
2023-01-07T20:11:43.071Z,15.00
2023-01-07T20:14:11.987Z,14.23
2023-01-07T20:16:41.376Z,14.68
2023-01-07T20:19:11.251Z,14.82
2023-01-07T20:21:39.149Z,15.55
2023-01-07T20:24:06.429Z,15.05
2023-01-07T20:26:34.127Z,14.65
2023-01-07T20:29:01.825Z,14.85
2023-01-07T20:31:30.526Z,14.55
2023-01-07T20:33:58.027Z,12.90
2023-01-07T20:36:27.793Z,13.38
2023-01-07T20:38:54.572Z,14.88
2023-01-07T20:41:24.429Z,14.30
2023-01-07T20:43:56.224Z,14.55
2023-01-07T20:46:24.318Z,14.25
2023-01-07T20:48:51.904Z,14.20
2023-01-07T20:51:19.638Z,14.65
2023-01-07T20:53:47.059Z,13.23
2023-01-07T20:56:17.549Z,14.52
2023-01-07T20:58:44.850Z,13.80
2023-01-07T21:01:13.995Z,15.27
2023-01-07T21:03:41.640Z,14.15
2023-01-07T21:06:10.652Z,14.10
2023-01-07T21:08:37.931Z,13.65
2023-01-07T21:11:07.998Z,14.70
2023-01-07T21:13:34.718Z,13.50
2023-01-07T21:16:05.789Z,12.30
2023-01-07T21:18:33.906Z,13.10
2023-01-07T21:21:01.812Z,14.27
2023-01-07T21:23:28.593Z,12.70
2023-01-07T21:25:55.289Z,12.35
2023-01-07T21:28:21.982Z,12.63
2023-01-07T21:30:48.888Z,14.30
2023-01-07T21:33:16.057Z,14.95
2023-01-07T21:35:42.990Z,13.35
2023-01-07T21:38:10.137Z,13.50
2023-01-07T21:40:39.327Z,11.90
2023-01-07T21:43:06.154Z,12.63
2023-01-07T21:45:33.234Z,12.70
2023-01-07T21:48:00.017Z,13.25
2023-01-07T21:50:26.950Z,12.20
2023-01-07T21:52:53.734Z,12.32
2023-01-07T21:55:20.477Z,12.05
2023-01-07T21:57:47.172Z,12.90
2023-01-07T22:00:14.640Z,12.80
2023-01-07T22:02:41.479Z,12.80
2023-01-07T22:05:08.832Z,12.95
2023-01-07T22:07:35.629Z,12.70
2023-01-07T22:10:02.530Z,12.07
2023-01-07T22:12:29.365Z,13.70
2023-01-07T22:14:56.290Z,11.63
2023-01-07T22:17:24.508Z,11.63
2023-01-07T22:19:51.360Z,12.52
2023-01-07T22:22:20.700Z,12.40
2023-01-07T22:24:47.641Z,12.15
2023-01-07T22:27:14.561Z,11.93
2023-01-07T22:29:42.101Z,11.52
2023-01-07T22:32:10.077Z,13.07
2023-01-07T22:34:36.935Z,12.95
2023-01-07T22:37:07.155Z,10.95
2023-01-07T22:39:41.577Z,11.75
2023-01-07T22:42:18.510Z,12.15
2023-01-07T22:44:52.657Z,10.57
2023-01-07T22:47:26.735Z,11.82
2023-01-07T22:49:54.488Z,11.82
2023-01-07T22:52:21.571Z,11.27
2023-01-07T22:54:48.480Z,12.50
2023-01-07T22:57:15.519Z,10.73
2023-01-07T22:59:42.331Z,10.88
2023-01-07T23:02:09.823Z,10.80
2023-01-07T23:04:36.770Z,10.93
2023-01-07T23:07:03.653Z,11.30
2023-01-07T23:09:30.501Z,12.13
2023-01-07T23:12:00.580Z,10.85
2023-01-07T23:14:29.370Z,10.65
2023-01-07T23:16:56.896Z,10.05
2023-01-07T23:19:23.672Z,9.25
2023-01-07T23:21:53.093Z,9.23
2023-01-07T23:24:20.314Z,9.70
2023-01-07T23:26:49.032Z,9.50
2023-01-07T23:29:15.863Z,9.95
2023-01-07T23:31:42.782Z,9.13
2023-01-07T23:34:09.804Z,9.77
2023-01-07T23:36:37.586Z,10.50
2023-01-07T23:39:05.677Z,9.88
2023-01-07T23:41:32.875Z,9.48
2023-01-07T23:43:59.609Z,8.95
2023-01-07T23:46:26.406Z,9.15
2023-01-07T23:48:53.145Z,9.10
2023-01-07T23:51:21.217Z,8.10
2023-01-07T23:53:48.903Z,8.43
2023-01-07T23:56:19.088Z,8.55
2023-01-07T23:58:45.917Z,9.13
